sensor_id;sensor_type;location;lat;lon;timestamp;P1;P2;P0
68841;PMS5003;55849;48.482;2.332;2023-01-16T00:01:49;0.00;0.00;0.00
68841;PMS5003;55849;48.482;2.332;2023-01-16T00:04:51;0.00;0.00;0.00
68841;PMS5003;55849;48.482;2.332;2023-01-16T00:07:54;0.00;0.00;0.00
68841;PMS5003;55849;48.482;2.332;2023-01-16T00:10:55;0.00;0.00;0.00
68841;PMS5003;55849;48.482;2.332;2023-01-16T00:13:59;0.00;0.00;0.00
68841;PMS5003;55849;48.482;2.332;2023-01-16T00:17:00;0.25;0.25;0.00
68841;PMS5003;55849;48.482;2.332;2023-01-16T00:20:02;0.50;0.50;0.00
68841;PMS5003;55849;48.482;2.332;2023-01-16T00:23:04;0.00;0.00;0.00
68841;PMS5003;55849;48.482;2.332;2023-01-16T00:26:06;0.00;0.00;0.00
68841;PMS5003;55849;48.482;2.332;2023-01-16T00:29:10;0.00;0.00;0.00
68841;PMS5003;55849;48.482;2.332;2023-01-16T00:32:12;0.00;0.00;0.00
68841;PMS5003;55849;48.482;2.332;2023-01-16T00:35:15;0.00;0.00;0.00
68841;PMS5003;55849;48.482;2.332;2023-01-16T00:38:17;0.00;0.00;0.00
68841;PMS5003;55849;48.482;2.332;2023-01-16T00:41:18;2.50;0.00;0.00
68841;PMS5003;55849;48.482;2.332;2023-01-16T00:44:21;0.50;0.50;0.50
68841;PMS5003;55849;48.482;2.332;2023-01-16T00:47:23;0.00;0.00;0.00
68841;PMS5003;55849;48.482;2.332;2023-01-16T00:50:25;0.00;0.00;0.00
68841;PMS5003;55849;48.482;2.332;2023-01-16T00:53:26;0.00;0.00;0.00
68841;PMS5003;55849;48.482;2.332;2023-01-16T00:56:28;1.00;1.00;0.00
68841;PMS5003;55849;48.482;2.332;2023-01-16T00:59:31;1.00;0.00;0.00
68841;PMS5003;55849;48.482;2.332;2023-01-16T01:02:33;0.75;0.00;0.00
68841;PMS5003;55849;48.482;2.332;2023-01-16T01:05:35;0.75;0.00;0.00
68841;PMS5003;55849;48.482;2.332;2023-01-16T01:08:38;0.00;0.00;0.00
68841;PMS5003;55849;48.482;2.332;2023-01-16T01:11:40;0.00;0.00;0.00
68841;PMS5003;55849;48.482;2.332;2023-01-16T01:14:43;0.00;0.00;0.00
68841;PMS5003;55849;48.482;2.332;2023-01-16T01:17:44;0.00;0.00;0.00
68841;PMS5003;55849;48.482;2.332;2023-01-16T01:20:46;0.00;0.00;0.00
68841;PMS5003;55849;48.482;2.332;2023-01-16T01:23:48;0.00;0.00;0.00
68841;PMS5003;55849;48.482;2.332;2023-01-16T01:26:49;0.00;0.00;0.00
68841;PMS5003;55849;48.482;2.332;2023-01-16T01:29:53;0.00;0.00;0.00
68841;PMS5003;55849;48.482;2.332;2023-01-16T01:32:55;0.00;0.00;0.00
68841;PMS5003;55849;48.482;2.332;2023-01-16T01:35:57;0.00;0.00;0.00
68841;PMS5003;55849;48.482;2.332;2023-01-16T01:38:58;0.00;0.00;0.00
68841;PMS5003;55849;48.482;2.332;2023-01-16T01:42:00;0.00;0.00;0.00
68841;PMS5003;55849;48.482;2.332;2023-01-16T01:45:18;0.00;0.00;0.00
68841;PMS5003;55849;48.482;2.332;2023-01-16T01:48:22;1.00;0.00;0.00
68841;PMS5003;55849;48.482;2.332;2023-01-16T01:51:28;0.00;0.00;0.00
68841;PMS5003;55849;48.482;2.332;2023-01-16T01:54:34;0.00;0.00;0.00
68841;PMS5003;55849;48.482;2.332;2023-01-16T01:57:39;0.00;0.00;0.00
68841;PMS5003;55849;48.482;2.332;2023-01-16T02:00:45;0.00;0.00;0.00
68841;PMS5003;55849;48.482;2.332;2023-01-16T02:03:50;0.75;0.75;0.00
68841;PMS5003;55849;48.482;2.332;2023-01-16T02:06:55;0.00;0.00;0.00
68841;PMS5003;55849;48.482;2.332;2023-01-16T02:10:02;0.00;0.00;0.00
68841;PMS5003;55849;48.482;2.332;2023-01-16T02:13:11;0.00;0.00;0.00
68841;PMS5003;55849;48.482;2.332;2023-01-16T02:16:14;0.00;0.00;0.00
68841;PMS5003;55849;48.482;2.332;2023-01-16T02:19:36;1.00;0.00;0.00
68841;PMS5003;55849;48.482;2.332;2023-01-16T02:22:45;0.00;0.00;0.00
68841;PMS5003;55849;48.482;2.332;2023-01-16T02:26:23;0.00;0.00;0.00
68841;PMS5003;55849;48.482;2.332;2023-01-16T02:29:47;0.00;0.00;0.00
68841;PMS5003;55849;48.482;2.332;2023-01-16T02:33:01;0.00;0.00;0.00
68841;PMS5003;55849;48.482;2.332;2023-01-16T02:36:11;0.00;0.00;0.00
68841;PMS5003;55849;48.482;2.332;2023-01-16T02:39:18;1.00;0.00;0.00
68841;PMS5003;55849;48.482;2.332;2023-01-16T02:42:30;0.00;0.00;0.00
68841;PMS5003;55849;48.482;2.332;2023-01-16T02:45:37;0.00;0.00;0.00
68841;PMS5003;55849;48.482;2.332;2023-01-16T02:48:48;0.00;0.00;0.00
68841;PMS5003;55849;48.482;2.332;2023-01-16T02:51:55;0.00;0.00;0.00
68841;PMS5003;55849;48.482;2.332;2023-01-16T02:55:06;0.00;0.00;0.00
68841;PMS5003;55849;48.482;2.332;2023-01-16T02:58:13;0.75;0.75;0.00
68841;PMS5003;55849;48.482;2.332;2023-01-16T03:01:18;1.50;0.00;0.00
68841;PMS5003;55849;48.482;2.332;2023-01-16T03:04:41;0.00;0.00;0.00
68841;PMS5003;55849;48.482;2.332;2023-01-16T03:11:17;0.00;0.00;0.00
68841;PMS5003;55849;48.482;2.332;2023-01-16T03:14:28;0.00;0.00;0.00
68841;PMS5003;55849;48.482;2.332;2023-01-16T03:17:39;0.00;0.00;0.00
68841;PMS5003;55849;48.482;2.332;2023-01-16T03:20:53;0.00;0.00;0.00
68841;PMS5003;55849;48.482;2.332;2023-01-16T03:24:03;0.00;0.00;0.00
68841;PMS5003;55849;48.482;2.332;2023-01-16T03:27:14;0.00;0.00;0.00
68841;PMS5003;55849;48.482;2.332;2023-01-16T03:30:28;0.00;0.00;0.00
68841;PMS5003;55849;48.482;2.332;2023-01-16T03:33:36;0.50;0.50;0.00
68841;PMS5003;55849;48.482;2.332;2023-01-16T03:36:46;0.00;0.00;0.00
68841;PMS5003;55849;48.482;2.332;2023-01-16T03:39:53;0.00;0.00;0.00
68841;PMS5003;55849;48.482;2.332;2023-01-16T03:43:01;0.00;0.00;0.00
68841;PMS5003;55849;48.482;2.332;2023-01-16T03:46:08;0.00;0.00;0.00
68841;PMS5003;55849;48.482;2.332;2023-01-16T03:49:15;0.00;0.00;0.00
68841;PMS5003;55849;48.482;2.332;2023-01-16T03:52:21;0.00;0.00;0.00
68841;PMS5003;55849;48.482;2.332;2023-01-16T03:55:29;0.00;0.00;0.00
68841;PMS5003;55849;48.482;2.332;2023-01-16T03:58:35;0.00;0.00;0.00
68841;PMS5003;55849;48.482;2.332;2023-01-16T04:01:39;1.00;0.00;0.00
68841;PMS5003;55849;48.482;2.332;2023-01-16T04:04:49;0.00;0.00;0.00
68841;PMS5003;55849;48.482;2.332;2023-01-16T04:07:56;0.00;0.00;0.00
68841;PMS5003;55849;48.482;2.332;2023-01-16T04:11:00;0.00;0.00;0.00
68841;PMS5003;55849;48.482;2.332;2023-01-16T04:14:04;0.00;0.00;0.00
68841;PMS5003;55849;48.482;2.332;2023-01-16T04:17:08;0.00;0.00;0.00
68841;PMS5003;55849;48.482;2.332;2023-01-16T04:20:11;0.00;0.00;0.00
68841;PMS5003;55849;48.482;2.332;2023-01-16T04:23:14;0.00;0.00;0.00
68841;PMS5003;55849;48.482;2.332;2023-01-16T04:26:17;0.00;0.00;0.00
68841;PMS5003;55849;48.482;2.332;2023-01-16T04:29:18;0.00;0.00;0.00
68841;PMS5003;55849;48.482;2.332;2023-01-16T04:32:20;0.00;0.00;0.00
68841;PMS5003;55849;48.482;2.332;2023-01-16T04:35:22;0.00;0.00;0.00
68841;PMS5003;55849;48.482;2.332;2023-01-16T04:38:25;0.00;0.00;0.00
68841;PMS5003;55849;48.482;2.332;2023-01-16T04:41:27;0.00;0.00;0.00
68841;PMS5003;55849;48.482;2.332;2023-01-16T04:44:38;0.00;0.00;0.00
68841;PMS5003;55849;48.482;2.332;2023-01-16T04:47:40;0.00;0.00;0.00
68841;PMS5003;55849;48.482;2.332;2023-01-16T04:50:47;0.00;0.00;0.00
68841;PMS5003;55849;48.482;2.332;2023-01-16T04:53:50;0.50;0.50;0.00
68841;PMS5003;55849;48.482;2.332;2023-01-16T04:56:52;0.00;0.00;0.00
68841;PMS5003;55849;48.482;2.332;2023-01-16T04:59:57;0.00;0.00;0.00
68841;PMS5003;55849;48.482;2.332;2023-01-16T05:02:59;0.00;0.00;0.00
68841;PMS5003;55849;48.482;2.332;2023-01-16T05:06:00;0.00;0.00;0.00
68841;PMS5003;55849;48.482;2.332;2023-01-16T05:09:04;0.75;0.75;0.00
68841;PMS5003;55849;48.482;2.332;2023-01-16T05:12:06;0.00;0.00;0.00
68841;PMS5003;55849;48.482;2.332;2023-01-16T05:15:08;3.00;1.00;0.00
68841;PMS5003;55849;48.482;2.332;2023-01-16T05:18:10;3.00;0.00;0.00
68841;PMS5003;55849;48.482;2.332;2023-01-16T05:21:12;0.00;0.00;0.00
68841;PMS5003;55849;48.482;2.332;2023-01-16T05:24:15;0.00;0.00;0.00
68841;PMS5003;55849;48.482;2.332;2023-01-16T05:27:17;0.25;0.00;0.00
68841;PMS5003;55849;48.482;2.332;2023-01-16T05:30:19;0.25;0.25;0.00
68841;PMS5003;55849;48.482;2.332;2023-01-16T05:33:20;0.00;0.00;0.00
68841;PMS5003;55849;48.482;2.332;2023-01-16T05:36:23;0.00;0.00;0.00
68841;PMS5003;55849;48.482;2.332;2023-01-16T05:39:26;0.00;0.00;0.00
68841;PMS5003;55849;48.482;2.332;2023-01-16T05:42:27;0.00;0.00;0.00
68841;PMS5003;55849;48.482;2.332;2023-01-16T05:45:29;2.25;0.75;0.00
68841;PMS5003;55849;48.482;2.332;2023-01-16T05:48:31;1.00;0.00;0.00
68841;PMS5003;55849;48.482;2.332;2023-01-16T05:51:32;1.00;1.00;0.00
68841;PMS5003;55849;48.482;2.332;2023-01-16T05:54:36;1.50;0.25;0.00
68841;PMS5003;55849;48.482;2.332;2023-01-16T05:57:37;1.00;1.00;0.50
68841;PMS5003;55849;48.482;2.332;2023-01-16T06:00:39;3.75;0.75;0.00
68841;PMS5003;55849;48.482;2.332;2023-01-16T06:03:42;0.00;0.00;0.00
68841;PMS5003;55849;48.482;2.332;2023-01-16T06:06:43;1.00;1.00;0.00
68841;PMS5003;55849;48.482;2.332;2023-01-16T06:09:46;0.50;0.50;0.50
68841;PMS5003;55849;48.482;2.332;2023-01-16T06:12:48;0.00;0.00;0.00
68841;PMS5003;55849;48.482;2.332;2023-01-16T06:15:53;2.25;0.00;0.00
68841;PMS5003;55849;48.482;2.332;2023-01-16T06:18:54;3.75;1.00;0.00
68841;PMS5003;55849;48.482;2.332;2023-01-16T06:21:56;6.00;0.00;0.00
68841;PMS5003;55849;48.482;2.332;2023-01-16T06:24:59;0.25;0.25;0.25
68841;PMS5003;55849;48.482;2.332;2023-01-16T06:28:01;0.00;0.00;0.00
68841;PMS5003;55849;48.482;2.332;2023-01-16T06:31:02;1.00;0.00;0.00
68841;PMS5003;55849;48.482;2.332;2023-01-16T06:34:05;1.50;0.25;0.00
68841;PMS5003;55849;48.482;2.332;2023-01-16T06:37:06;0.00;0.00;0.00
68841;PMS5003;55849;48.482;2.332;2023-01-16T06:40:10;0.75;0.75;0.00
68841;PMS5003;55849;48.482;2.332;2023-01-16T06:43:12;0.00;0.00;0.00
68841;PMS5003;55849;48.482;2.332;2023-01-16T06:46:15;0.00;0.00;0.00
68841;PMS5003;55849;48.482;2.332;2023-01-16T06:49:17;0.50;0.00;0.00
68841;PMS5003;55849;48.482;2.332;2023-01-16T06:52:19;0.00;0.00;0.00
68841;PMS5003;55849;48.482;2.332;2023-01-16T06:55:22;0.25;0.25;0.00
68841;PMS5003;55849;48.482;2.332;2023-01-16T06:58:23;0.00;0.00;0.00
68841;PMS5003;55849;48.482;2.332;2023-01-16T07:01:25;0.00;0.00;0.00
68841;PMS5003;55849;48.482;2.332;2023-01-16T07:04:27;0.00;0.00;0.00
68841;PMS5003;55849;48.482;2.332;2023-01-16T07:07:28;3.25;0.00;0.00
68841;PMS5003;55849;48.482;2.332;2023-01-16T07:10:31;1.00;1.00;0.00
68841;PMS5003;55849;48.482;2.332;2023-01-16T07:13:33;1.00;1.00;0.25
68841;PMS5003;55849;48.482;2.332;2023-01-16T07:16:35;0.00;0.00;0.00
68841;PMS5003;55849;48.482;2.332;2023-01-16T07:19:54;0.00;0.00;0.00
68841;PMS5003;55849;48.482;2.332;2023-01-16T07:23:14;3.00;0.50;0.00
68841;PMS5003;55849;48.482;2.332;2023-01-16T07:26:21;0.50;0.50;0.00
68841;PMS5003;55849;48.482;2.332;2023-01-16T07:29:24;0.75;0.00;0.00
68841;PMS5003;55849;48.482;2.332;2023-01-16T07:32:26;0.00;0.00;0.00
68841;PMS5003;55849;48.482;2.332;2023-01-16T07:35:27;1.50;1.50;1.00
68841;PMS5003;55849;48.482;2.332;2023-01-16T07:38:29;0.00;0.00;0.00
68841;PMS5003;55849;48.482;2.332;2023-01-16T07:41:32;4.00;1.00;1.00
68841;PMS5003;55849;48.482;2.332;2023-01-16T07:44:34;4.00;1.00;0.50
68841;PMS5003;55849;48.482;2.332;2023-01-16T07:47:36;0.25;0.25;0.25
68841;PMS5003;55849;48.482;2.332;2023-01-16T07:50:38;2.00;2.00;0.50
68841;PMS5003;55849;48.482;2.332;2023-01-16T07:53:39;6.00;4.00;1.00
68841;PMS5003;55849;48.482;2.332;2023-01-16T07:56:42;2.50;0.00;0.00
68841;PMS5003;55849;48.482;2.332;2023-01-16T07:59:46;0.00;0.00;0.00
68841;PMS5003;55849;48.482;2.332;2023-01-16T08:02:48;0.00;0.00;0.00
68841;PMS5003;55849;48.482;2.332;2023-01-16T08:05:54;3.00;0.00;0.00
68841;PMS5003;55849;48.482;2.332;2023-01-16T08:08:56;1.00;1.00;0.00
68841;PMS5003;55849;48.482;2.332;2023-01-16T08:11:59;0.75;0.00;0.00
68841;PMS5003;55849;48.482;2.332;2023-01-16T08:15:01;0.00;0.00;0.00
68841;PMS5003;55849;48.482;2.332;2023-01-16T08:18:03;0.00;0.00;0.00
68841;PMS5003;55849;48.482;2.332;2023-01-16T08:21:05;0.00;0.00;0.00
68841;PMS5003;55849;48.482;2.332;2023-01-16T08:24:09;0.00;0.00;0.00
68841;PMS5003;55849;48.482;2.332;2023-01-16T08:27:14;0.00;0.00;0.00
68841;PMS5003;55849;48.482;2.332;2023-01-16T08:30:16;0.00;0.00;0.00
68841;PMS5003;55849;48.482;2.332;2023-01-16T08:33:18;0.00;0.00;0.00
68841;PMS5003;55849;48.482;2.332;2023-01-16T08:36:20;0.00;0.00;0.00
68841;PMS5003;55849;48.482;2.332;2023-01-16T08:39:21;0.00;0.00;0.00
68841;PMS5003;55849;48.482;2.332;2023-01-16T08:42:26;0.00;0.00;0.00
68841;PMS5003;55849;48.482;2.332;2023-01-16T08:45:45;0.00;0.00;0.00
68841;PMS5003;55849;48.482;2.332;2023-01-16T08:49:09;0.00;0.00;0.00
68841;PMS5003;55849;48.482;2.332;2023-01-16T08:52:31;3.00;0.00;0.00
68841;PMS5003;55849;48.482;2.332;2023-01-16T08:55:34;0.00;0.00;0.00
68841;PMS5003;55849;48.482;2.332;2023-01-16T08:58:41;0.00;0.00;0.00
68841;PMS5003;55849;48.482;2.332;2023-01-16T09:01:42;0.00;0.00;0.00
68841;PMS5003;55849;48.482;2.332;2023-01-16T09:04:44;0.00;0.00;0.00
68841;PMS5003;55849;48.482;2.332;2023-01-16T09:07:47;0.00;0.00;0.00
68841;PMS5003;55849;48.482;2.332;2023-01-16T09:10:52;0.00;0.00;0.00
68841;PMS5003;55849;48.482;2.332;2023-01-16T09:14:12;0.00;0.00;0.00
68841;PMS5003;55849;48.482;2.332;2023-01-16T09:17:14;0.00;0.00;0.00
68841;PMS5003;55849;48.482;2.332;2023-01-16T09:20:16;0.00;0.00;0.00
68841;PMS5003;55849;48.482;2.332;2023-01-16T09:23:18;0.00;0.00;0.00
68841;PMS5003;55849;48.482;2.332;2023-01-16T09:26:19;0.00;0.00;0.00
68841;PMS5003;55849;48.482;2.332;2023-01-16T09:29:25;0.00;0.00;0.00
68841;PMS5003;55849;48.482;2.332;2023-01-16T09:32:27;0.00;0.00;0.00
68841;PMS5003;55849;48.482;2.332;2023-01-16T09:35:29;0.00;0.00;0.00
68841;PMS5003;55849;48.482;2.332;2023-01-16T09:38:31;0.00;0.00;0.00
68841;PMS5003;55849;48.482;2.332;2023-01-16T09:41:34;0.00;0.00;0.00
68841;PMS5003;55849;48.482;2.332;2023-01-16T09:45:02;0.00;0.00;0.00
68841;PMS5003;55849;48.482;2.332;2023-01-16T09:48:11;0.00;0.00;0.00
68841;PMS5003;55849;48.482;2.332;2023-01-16T09:51:18;0.00;0.00;0.00
68841;PMS5003;55849;48.482;2.332;2023-01-16T09:54:23;0.00;0.00;0.00
68841;PMS5003;55849;48.482;2.332;2023-01-16T09:58:03;0.00;0.00;0.00
68841;PMS5003;55849;48.482;2.332;2023-01-16T10:01:27;0.00;0.00;0.00
68841;PMS5003;55849;48.482;2.332;2023-01-16T10:04:33;0.00;0.00;0.00
68841;PMS5003;55849;48.482;2.332;2023-01-16T10:07:45;0.00;0.00;0.00
68841;PMS5003;55849;48.482;2.332;2023-01-16T10:10:52;0.00;0.00;0.00
68841;PMS5003;55849;48.482;2.332;2023-01-16T10:14:02;0.00;0.00;0.00
68841;PMS5003;55849;48.482;2.332;2023-01-16T10:17:18;1.00;0.00;0.00
68841;PMS5003;55849;48.482;2.332;2023-01-16T10:20:30;0.00;0.00;0.00
68841;PMS5003;55849;48.482;2.332;2023-01-16T10:23:48;0.00;0.00;0.00
68841;PMS5003;55849;48.482;2.332;2023-01-16T10:26:56;0.00;0.00;0.00
68841;PMS5003;55849;48.482;2.332;2023-01-16T10:30:00;0.00;0.00;0.00
68841;PMS5003;55849;48.482;2.332;2023-01-16T10:33:08;0.75;0.00;0.00
68841;PMS5003;55849;48.482;2.332;2023-01-16T10:36:15;0.00;0.00;0.00
68841;PMS5003;55849;48.482;2.332;2023-01-16T10:39:21;0.00;0.00;0.00
68841;PMS5003;55849;48.482;2.332;2023-01-16T10:42:23;0.00;0.00;0.00
68841;PMS5003;55849;48.482;2.332;2023-01-16T10:45:45;0.00;0.00;0.00
68841;PMS5003;55849;48.482;2.332;2023-01-16T10:49:09;0.00;0.00;0.00
68841;PMS5003;55849;48.482;2.332;2023-01-16T10:52:28;2.25;0.75;0.00
68841;PMS5003;55849;48.482;2.332;2023-01-16T10:55:31;5.00;0.50;0.00
68841;PMS5003;55849;48.482;2.332;2023-01-16T10:58:36;0.00;0.00;0.00
68841;PMS5003;55849;48.482;2.332;2023-01-16T11:01:40;0.00;0.00;0.00
68841;PMS5003;55849;48.482;2.332;2023-01-16T11:04:44;0.00;0.00;0.00
68841;PMS5003;55849;48.482;2.332;2023-01-16T11:07:46;0.00;0.00;0.00
68841;PMS5003;55849;48.482;2.332;2023-01-16T11:10:48;0.00;0.00;0.00
68841;PMS5003;55849;48.482;2.332;2023-01-16T11:13:51;0.00;0.00;0.00
68841;PMS5003;55849;48.482;2.332;2023-01-16T11:17:15;0.00;0.00;0.00
68841;PMS5003;55849;48.482;2.332;2023-01-16T11:20:42;0.00;0.00;0.00
68841;PMS5003;55849;48.482;2.332;2023-01-16T11:23:49;0.00;0.00;0.00
68841;PMS5003;55849;48.482;2.332;2023-01-16T11:26:59;0.00;0.00;0.00
68841;PMS5003;55849;48.482;2.332;2023-01-16T11:30:02;0.00;0.00;0.00
68841;PMS5003;55849;48.482;2.332;2023-01-16T11:33:11;0.00;0.00;0.00
68841;PMS5003;55849;48.482;2.332;2023-01-16T11:36:17;1.00;1.00;0.50
68841;PMS5003;55849;48.482;2.332;2023-01-16T11:39:20;5.50;1.00;0.00
68841;PMS5003;55849;48.482;2.332;2023-01-16T11:42:24;0.00;0.00;0.00
68841;PMS5003;55849;48.482;2.332;2023-01-16T11:45:43;0.00;0.00;0.00
68841;PMS5003;55849;48.482;2.332;2023-01-16T11:49:14;0.00;0.00;0.00
68841;PMS5003;55849;48.482;2.332;2023-01-16T11:52:19;2.50;1.00;0.00
68841;PMS5003;55849;48.482;2.332;2023-01-16T11:55:29;2.25;0.25;0.00
68841;PMS5003;55849;48.482;2.332;2023-01-16T11:58:41;2.50;2.50;0.00
68841;PMS5003;55849;48.482;2.332;2023-01-16T12:01:52;7.00;1.50;0.00
68841;PMS5003;55849;48.482;2.332;2023-01-16T12:05:19;0.00;0.00;0.00
68841;PMS5003;55849;48.482;2.332;2023-01-16T12:08:53;0.00;0.00;0.00
68841;PMS5003;55849;48.482;2.332;2023-01-16T12:12:09;1.00;0.00;0.00
68841;PMS5003;55849;48.482;2.332;2023-01-16T12:15:33;5.25;2.50;2.00
68841;PMS5003;55849;48.482;2.332;2023-01-16T12:18:44;2.25;1.50;1.00
68841;PMS5003;55849;48.482;2.332;2023-01-16T12:21:55;1.50;1.50;0.75
68841;PMS5003;55849;48.482;2.332;2023-01-16T12:25:18;1.00;0.75;0.75
68841;PMS5003;55849;48.482;2.332;2023-01-16T12:28:30;1.00;1.00;0.00
68841;PMS5003;55849;48.482;2.332;2023-01-16T12:31:44;0.00;0.00;0.00
68841;PMS5003;55849;48.482;2.332;2023-01-16T12:38:31;0.00;0.00;0.00
68841;PMS5003;55849;48.482;2.332;2023-01-16T12:41:40;2.00;0.50;0.00
68841;PMS5003;55849;48.482;2.332;2023-01-16T12:45:12;1.75;1.75;0.00
68841;PMS5003;55849;48.482;2.332;2023-01-16T12:48:48;0.00;0.00;0.00
68841;PMS5003;55849;48.482;2.332;2023-01-16T12:52:03;3.00;0.50;0.00
68841;PMS5003;55849;48.482;2.332;2023-01-16T12:55:18;1.00;0.00;0.00
68841;PMS5003;55849;48.482;2.332;2023-01-16T12:58:30;5.00;3.50;1.00
68841;PMS5003;55849;48.482;2.332;2023-01-16T13:01:36;4.00;0.00;0.00
68841;PMS5003;55849;48.482;2.332;2023-01-16T13:04:41;0.00;0.00;0.00
68841;PMS5003;55849;48.482;2.332;2023-01-16T13:07:47;0.00;0.00;0.00
68841;PMS5003;55849;48.482;2.332;2023-01-16T13:10:54;1.00;1.00;0.00
68841;PMS5003;55849;48.482;2.332;2023-01-16T13:14:19;1.00;1.00;0.00
68841;PMS5003;55849;48.482;2.332;2023-01-16T13:17:24;0.00;0.00;0.00
68841;PMS5003;55849;48.482;2.332;2023-01-16T13:20:37;0.00;0.00;0.00
68841;PMS5003;55849;48.482;2.332;2023-01-16T13:23:40;3.00;3.00;2.00
68841;PMS5003;55849;48.482;2.332;2023-01-16T13:26:51;0.00;0.00;0.00
68841;PMS5003;55849;48.482;2.332;2023-01-16T13:29:59;0.75;0.75;0.00
68841;PMS5003;55849;48.482;2.332;2023-01-16T13:33:04;2.50;2.00;0.25
68841;PMS5003;55849;48.482;2.332;2023-01-16T13:36:13;1.00;1.00;1.00
68841;PMS5003;55849;48.482;2.332;2023-01-16T13:39:35;3.25;1.50;0.00
68841;PMS5003;55849;48.482;2.332;2023-01-16T13:43:02;0.00;0.00;0.00
68841;PMS5003;55849;48.482;2.332;2023-01-16T13:46:26;1.00;1.00;1.00
68841;PMS5003;55849;48.482;2.332;2023-01-16T13:49:29;1.00;1.00;0.00
68841;PMS5003;55849;48.482;2.332;2023-01-16T13:52:31;3.25;1.00;0.25
68841;PMS5003;55849;48.482;2.332;2023-01-16T13:55:35;3.00;0.00;0.00
68841;PMS5003;55849;48.482;2.332;2023-01-16T13:58:39;0.00;0.00;0.00
68841;PMS5003;55849;48.482;2.332;2023-01-16T14:01:54;0.00;0.00;0.00
68841;PMS5003;55849;48.482;2.332;2023-01-16T14:08:25;0.00;0.00;0.00
68841;PMS5003;55849;48.482;2.332;2023-01-16T14:11:57;0.00;0.00;0.00
68841;PMS5003;55849;48.482;2.332;2023-01-16T14:15:13;2.50;2.50;1.00
68841;PMS5003;55849;48.482;2.332;2023-01-16T14:18:40;3.50;1.00;0.00
68841;PMS5003;55849;48.482;2.332;2023-01-16T14:21:43;3.50;3.50;1.00
68841;PMS5003;55849;48.482;2.332;2023-01-16T14:25:21;4.00;1.00;0.00
68841;PMS5003;55849;48.482;2.332;2023-01-16T14:28:26;2.00;0.50;0.00
68841;PMS5003;55849;48.482;2.332;2023-01-16T14:31:33;1.00;1.00;0.50
68841;PMS5003;55849;48.482;2.332;2023-01-16T14:34:46;4.50;1.00;1.00
68841;PMS5003;55849;48.482;2.332;2023-01-16T14:37:59;2.50;2.50;1.00
68841;PMS5003;55849;48.482;2.332;2023-01-16T14:41:05;1.00;1.00;1.00
68841;PMS5003;55849;48.482;2.332;2023-01-16T14:44:33;1.50;1.50;1.50
68841;PMS5003;55849;48.482;2.332;2023-01-16T14:48:41;0.00;0.00;0.00
68841;PMS5003;55849;48.482;2.332;2023-01-16T14:52:00;0.00;0.00;0.00
68841;PMS5003;55849;48.482;2.332;2023-01-16T14:55:20;1.00;1.00;0.00
68841;PMS5003;55849;48.482;2.332;2023-01-16T14:58:26;1.00;0.00;0.00
68841;PMS5003;55849;48.482;2.332;2023-01-16T15:01:38;0.00;0.00;0.00
68841;PMS5003;55849;48.482;2.332;2023-01-16T15:05:04;0.75;0.00;0.00
68841;PMS5003;55849;48.482;2.332;2023-01-16T15:08:08;0.00;0.00;0.00
68841;PMS5003;55849;48.482;2.332;2023-01-16T15:11:19;2.00;2.00;0.00
68841;PMS5003;55849;48.482;2.332;2023-01-16T15:14:34;0.00;0.00;0.00
68841;PMS5003;55849;48.482;2.332;2023-01-16T15:17:37;9.00;3.00;1.00
68841;PMS5003;55849;48.482;2.332;2023-01-16T15:21:07;0.00;0.00;0.00
68841;PMS5003;55849;48.482;2.332;2023-01-16T15:24:31;2.75;2.75;0.50
68841;PMS5003;55849;48.482;2.332;2023-01-16T15:27:34;0.50;0.50;0.00
68841;PMS5003;55849;48.482;2.332;2023-01-16T15:30:38;0.00;0.00;0.00
68841;PMS5003;55849;48.482;2.332;2023-01-16T15:33:41;0.00;0.00;0.00
68841;PMS5003;55849;48.482;2.332;2023-01-16T15:36:49;1.00;1.00;0.75
68841;PMS5003;55849;48.482;2.332;2023-01-16T15:39:51;0.00;0.00;0.00
68841;PMS5003;55849;48.482;2.332;2023-01-16T15:42:53;0.00;0.00;0.00
68841;PMS5003;55849;48.482;2.332;2023-01-16T15:46:15;0.00;0.00;0.00
68841;PMS5003;55849;48.482;2.332;2023-01-16T15:49:37;0.00;0.00;0.00
68841;PMS5003;55849;48.482;2.332;2023-01-16T15:52:47;0.00;0.00;0.00
68841;PMS5003;55849;48.482;2.332;2023-01-16T15:55:49;1.00;1.00;1.00
68841;PMS5003;55849;48.482;2.332;2023-01-16T15:58:54;0.00;0.00;0.00
68841;PMS5003;55849;48.482;2.332;2023-01-16T16:02:08;1.50;0.00;0.00
68841;PMS5003;55849;48.482;2.332;2023-01-16T16:05:16;0.75;0.00;0.00
68841;PMS5003;55849;48.482;2.332;2023-01-16T16:08:24;4.00;1.00;1.00
68841;PMS5003;55849;48.482;2.332;2023-01-16T16:11:29;1.00;1.00;1.00
68841;PMS5003;55849;48.482;2.332;2023-01-16T16:14:50;4.50;4.00;3.00
68841;PMS5003;55849;48.482;2.332;2023-01-16T16:18:33;3.00;3.00;1.00
68841;PMS5003;55849;48.482;2.332;2023-01-16T16:21:36;4.00;4.00;3.25
68841;PMS5003;55849;48.482;2.332;2023-01-16T16:25:12;3.00;3.00;3.00
68841;PMS5003;55849;48.482;2.332;2023-01-16T16:28:22;3.00;0.75;0.25
68841;PMS5003;55849;48.482;2.332;2023-01-16T16:31:27;0.75;0.00;0.00
68841;PMS5003;55849;48.482;2.332;2023-01-16T16:34:32;0.75;0.75;0.00
68841;PMS5003;55849;48.482;2.332;2023-01-16T16:37:33;1.00;1.00;0.00
68841;PMS5003;55849;48.482;2.332;2023-01-16T16:40:38;0.75;0.75;0.00
68841;PMS5003;55849;48.482;2.332;2023-01-16T16:43:43;0.00;0.00;0.00
68841;PMS5003;55849;48.482;2.332;2023-01-16T16:46:49;3.00;3.00;2.50
68841;PMS5003;55849;48.482;2.332;2023-01-16T16:49:51;4.00;4.00;3.50
68841;PMS5003;55849;48.482;2.332;2023-01-16T16:52:53;6.25;6.25;6.00
68841;PMS5003;55849;48.482;2.332;2023-01-16T16:56:09;50.00;43.00;29.00
68841;PMS5003;55849;48.482;2.332;2023-01-16T16:59:14;18.25;15.75;10.00
68841;PMS5003;55849;48.482;2.332;2023-01-16T17:02:18;26.00;20.50;15.00
68841;PMS5003;55849;48.482;2.332;2023-01-16T17:05:20;24.00;11.25;0.00
68841;PMS5003;55849;48.482;2.332;2023-01-16T17:08:23;26.00;25.25;19.50
68841;PMS5003;55849;48.482;2.332;2023-01-16T17:11:29;54.50;45.25;30.00
68841;PMS5003;55849;48.482;2.332;2023-01-16T17:14:30;68.50;56.50;35.50
68841;PMS5003;55849;48.482;2.332;2023-01-16T17:17:32;43.75;30.00;19.25
68841;PMS5003;55849;48.482;2.332;2023-01-16T17:20:34;19.50;15.75;11.00
68841;PMS5003;55849;48.482;2.332;2023-01-16T17:23:37;18.50;12.75;11.00
68841;PMS5003;55849;48.482;2.332;2023-01-16T17:26:40;13.25;12.00;9.25
68841;PMS5003;55849;48.482;2.332;2023-01-16T17:29:42;14.25;11.50;9.00
68841;PMS5003;55849;48.482;2.332;2023-01-16T17:32:44;10.00;8.00;4.00
68841;PMS5003;55849;48.482;2.332;2023-01-16T17:35:53;8.50;5.00;4.00
68841;PMS5003;55849;48.482;2.332;2023-01-16T17:39:09;11.50;11.50;9.00
68841;PMS5003;55849;48.482;2.332;2023-01-16T17:42:12;12.00;7.00;5.50
68841;PMS5003;55849;48.482;2.332;2023-01-16T17:45:32;16.00;16.00;9.50
68841;PMS5003;55849;48.482;2.332;2023-01-16T17:48:56;17.00;14.50;9.75
68841;PMS5003;55849;48.482;2.332;2023-01-16T17:51:58;22.50;21.00;13.50
68841;PMS5003;55849;48.482;2.332;2023-01-16T17:55:00;19.00;15.75;12.00
68841;PMS5003;55849;48.482;2.332;2023-01-16T17:58:22;17.75;15.00;9.25
68841;PMS5003;55849;48.482;2.332;2023-01-16T18:01:28;82.25;63.50;40.25
68841;PMS5003;55849;48.482;2.332;2023-01-16T18:04:32;30.25;24.75;16.00
68841;PMS5003;55849;48.482;2.332;2023-01-16T18:07:34;20.50;16.00;12.00
68841;PMS5003;55849;48.482;2.332;2023-01-16T18:10:35;21.25;21.00;15.75
68841;PMS5003;55849;48.482;2.332;2023-01-16T18:13:39;30.75;24.00;16.00
68841;PMS5003;55849;48.482;2.332;2023-01-16T18:17:04;16.50;13.00;8.00
68841;PMS5003;55849;48.482;2.332;2023-01-16T18:20:24;20.25;14.00;9.50
68841;PMS5003;55849;48.482;2.332;2023-01-16T18:23:26;19.25;19.25;12.25
68841;PMS5003;55849;48.482;2.332;2023-01-16T18:26:28;24.50;19.50;13.50